Newby, Texas
Current Conditions -  °F | °C
As of 10:55 PM on Sunday 21 Dec 2014 (Local Time) from KLXY Reporting Station
Overcast Overcast  
Wind Chill: 53°   Ceiling: 900
Heat Index: 53°   Visibility: 10mi
Dew Point: 50°   Wind: 10mph
Humidity: 91%   Direction: 170°S
Pressure: 29.82"   Gusts: NA
Location:  31.3714°N, 96.2118°W
Report Text: KLXY 220455Z AUTO 17009KT 10SM BKN009 OVC014 12/10 A2982 RMK AO2 T01150101
Loading
Personal Weather Stations






























Interactive Weather Map New forecast layout! Learn more

10-Day Weather Forecast

Advertisements
Track Severe Weather on mobile